Tiempo atmosférico en la estación meteorológica de Calatayud, Zaragoza (600 m.)



Fecha
DESCASC
Temp. máxima en grados centígrados (hora)
DESCASC
Temp. mínima en grados centígrados (hora)
DESCASC
Temp. media en grados centígrados
DESCASC
Racha de viento máxima en m/sg (hora)
DESCASC
Velocidad máxima media en intervalos de 10 minutos(hora)
DESCASC
Precipitaciones diarias en mm
DESCASC
Precipitaciones de 00:00 a 06:00 en mm
DESCASC
Precipitaciones de 06:00 a 12:00 en mm
DESCASC
Precipitaciones de 12:00 a 18:00 en mm
DESCASC
Precipitaciones de 18:00 a 24:00 en mm
DESCASC
19-01-2020 7.6 (15:50) 2.3 (23:59) 4.9 16.11 (18:00) 10.28 (17:20) 1 0 1 0 0
18-01-2020 11.7 (16:50) -0.7 (03:50) 5.5 15.28 (21:40) 8.61 (21:40) 2 0 0 0 2
17-01-2020 14 (15:20) 2.5 (07:20) 8.3 14.72 (14:20) 8.33 (14:20) 0 0 0 0 0
16-01-2020 16.5 (16:10) -0.2 (00:00) 8.1 8.06 (16:10) 4.44 (16:10) 0 0 0 0 0
15-01-2020 15 (16:30) -3.1 (-00:0) 6 7.5 (16:40) 4.17 (16:50) 0 0 0 0 0
14-01-2020 9.9 (15:50) -3.2 (-00:0) 3.3 8.89 (13:40) 5 (13:40) 0 0 0 0 0
13-01-2020 -- (--) -- (--) -- -- (--) -- (--) -- 0 -- -- 0
12-01-2020 10 (15:50) -5.3 (07:50) 2.3 3.06 (17:00) 2.5 (17:10) 0 0 0 0 0
11-01-2020 12.1 (17:00) -3.6 (-00:0) 4.3 6.11 (20:00) 3.89 (20:00) 0 0 0 0 0
10-01-2020 11.3 (14:20) 1.5 (00:00) 6.4 10.28 (15:20) 6.11 (15:20) 0 0 0 0 0
09-01-2020 16.3 (16:50) -2.5 (-00:0) 6.9 3.61 (21:20) 2.78 (21:20) 0 0 0 0 0
08-01-2020 12.9 (16:50) -1.8 (-00:0) 5.5 3.61 (17:50) 2.5 (17:40) 0 0 0 0 0
07-01-2020 12.9 (17:00) -4 (-00:0) 4.4 3.06 (15:00) 2.22 (15:00) 0 0 0 0 0
06-01-2020 12.5 (16:40) -4.4 (-00:0) 4 3.06 (18:30) 2.22 (18:50) 0 0 0 0 0
05-01-2020 10.4 (17:30) -3.6 (-00:0) 3.4 2.22 (14:30) 1.67 (14:50) 0 0 0 0 0
04-01-2020 11.5 (16:30) -1.4 (-00:0) 5.1 3.61 (04:00) 2.22 (03:50) 0 0 0 0 0
03-01-2020 9.4 (16:10) -3.8 (-00:0) 2.8 5.56 (15:00) 3.61 (13:30) 0 0 0 0 0
02-01-2020 12 (16:20) -4.4 (-00:0) 3.8 5 (18:30) 3.61 (18:10) 0 0 0 0 0
01-01-2020 10.8 (17:30) -5 (-00:0) 2.9 2.78 (15:50) 1.94 (16:00) 0 0 0 0 0
31-12-2019 8.6 (15:00) -4 (-00:0) 2.3 4.72 (17:30) 3.33 (17:50) 0 0 0 0 0
30-12-2019 7.2 (14:30) -3.2 (-00:0) 2 5 (15:40) 3.89 (15:30) 0 0 0 0 0
29-12-2019 11.6 (16:30) -3.1 (-00:0) 4.3 2.5 (20:30) 1.94 (20:30) 0 0 0 0 0
28-12-2019 9.7 (16:40) -2.5 (-00:0) 3.6 3.61 (03:30) 2.22 (01:10) 0 0 0 0 0
27-12-2019 4.2 (16:20) 0 (00:00) 2.1 3.61 (15:10) 2.22 (08:10) 0 0 0 0 0
26-12-2019 16.5 (15:00) 3.8 (00:00) 10.1 5.28 (05:10) 3.06 (05:10) 0 0 0 0 0
25-12-2019 15 (17:00) 1.4 (00:00) 8.2 2.22 (18:50) 1.67 (19:00) 0 0 0 0 0
24-12-2019 17.7 (15:30) 4 (08:40) 10.9 5.28 (08:10) 3.61 (08:10) 0 0 0 0 0
23-12-2019 16.1 (16:20) 6.4 (00:00) 11.3 11.11 (00:30) 6.39 (01:00) 0 0 0 0 0

Gráficas

Temp. máximas Temp. mínimas Temp. medias Precipitaciones Rachas de viento máximas Velocidades máximas media en intervalos de 10 minutos

Datos horarios

Fecha y hora oficial Temperatura (ºC) Velocidad del viento (km/h) Dirección del viento Racha (km/h) Dirección de racha Precipitación (mm) Presión (hPa) Tendencia (hPa) Humedad (%)
2020-01-21 23:00:00 2.7 6 Sur 10 Sur 2 953.3 1.3 90
2020-01-21 22:00:00 3.2 2 Sudeste 11 Sur 2 953.2 1.7 88
2020-01-21 21:00:00 3.8 4 Sur 29 Este 1.2 953 2.3 86
2020-01-21 20:00:00 4.6 23 Nordeste 36 Nordeste 2 952 1.6 86
2020-01-21 19:00:00 4.3 6 Sudeste 26 Nordeste 1 951.5 0.8 89
2020-01-21 18:00:00 4.1 13 Este 27 Nordeste 1.8 950.7 -1.1 90
2020-01-21 17:00:00 3.4 7 Este 20 Sur 2 950.4 -1.8 90
2020-01-21 16:00:00 2.6 9 Sur 24 Nordeste 2.8 950.7 -2.6 89
2020-01-21 15:00:00 2.7 18 Nordeste 41 Nordeste 2.2 951.8 -2.3 86
2020-01-21 14:00:00 2.5 21 Nordeste 35 Nordeste 1 952.2 -1.9 88
2020-01-21 13:00:00 1.9 21 Nordeste 39 Nordeste 3.4 953.3 -1 88
2020-01-21 12:00:00 1.7 18 Nordeste 40 Nordeste 1.8 954.1 -0.2 87
2020-01-21 11:00:00 1.7 21 Nordeste 29 Este 1.4 954.1 -0.2 88
2020-01-21 10:00:00 1.6 19 Nordeste 29 Nordeste 2.4 954.3 -0.4 89
2020-01-21 09:00:00 0.7 19 Nordeste 37 Nordeste 2 954.3 -1 91
2020-01-21 08:00:00 0.8 23 Nordeste 36 Nordeste 1.6 954.3 -1.4 91
2020-01-21 07:00:00 0.5 20 Nordeste 34 Nordeste 0.8 954.7 -1.6 91
2020-01-21 06:00:00 0.7 5 Oeste 20 Nordeste 0.2 955.3 -1.5 90
2020-01-21 05:00:00 0.5 6 Nordeste 17 Nordeste 0.6 955.7 -1.9 91
2020-01-21 04:00:00 0.4 10 Nordeste 28 Nordeste 0.6 956.3 -1.5 91
2020-01-21 03:00:00 0.3 4 Sudoeste 19 Nordeste 0 956.8 -1.3 89
2020-01-21 02:00:00 0.3 6 Norte 21 Nordeste 0.2 957.6 -0.4 88
2020-01-21 01:00:00 0.5 10 Nordeste 32 Nordeste 0 957.8 0 84
2020-01-21 00:00:00 0.9 17 Nordeste 38 Nordeste 0 958.1 0.3 79
2020-01-20 23:00:00 1.9 27 Nordeste 40 Nordeste 0 958 0.3 66
2020-01-20 22:00:00 2.3 19 Nordeste 31 Este 0 957.8 0.4 59
2020-01-20 21:00:00 1.9 24 Nordeste 41 Este 0 957.8 1.1 63
2020-01-20 20:00:00 2.4 26 Nordeste 50 Nordeste 0 957.7 1.2 57
2020-01-20 19:00:00 2.9 25 Nordeste 45 Nordeste 0 957.4 1.1 50
2020-01-20 18:00:00 3.4 19 Nordeste 43 Nordeste 0 956.7 0.7 49
2020-01-20 17:00:00 3.6 24 Nordeste 47 Nordeste 0 956.5 0.5 51
2020-01-20 16:00:00 4.9 17 Nordeste 50 Este 0 956.3 -0.5 39
2020-01-20 15:00:00 5.9 26 Nordeste 41 Nordeste 0 956 -1.9 36
2020-01-20 14:00:00 5.9 24 Nordeste 41 Nordeste 0 956 -2 35
2020-01-20 13:00:00 3.5 22 Nordeste 39 Nordeste 0 956.8 -0.9 42
2020-01-20 12:00:00 2.7 19 Nordeste 35 Nordeste 0 957.9 0.8 46
2020-01-20 11:00:00 0 4 Oeste 10 Sudoeste 0 958 1.4 68
2020-01-20 10:00:00 -0.8 4 Sudoeste 10 Oeste 0 957.7 1.3 66
2020-01-20 09:00:00 -2.5 5 Oeste 11 Oeste 0 957.1 0.5 76
2020-01-20 08:00:00 -2.3 2 Oeste 9 Sudoeste 0 956.6 0.1 75
2020-01-20 07:00:00 -2.3 7 Sudoeste 14 Sudoeste 0 956.4 -0.2 72
2020-01-20 06:00:00 -2.6 4 Oeste 11 Sudoeste 0 956.6 -0.5 73
2020-01-20 05:00:00 -2.8 4 Sudoeste 10 Oeste 0 956.5 -0.7 73
2020-01-20 04:00:00 -2.1 9 Oeste 13 Oeste 0 956.6 -1 71
2020-01-20 03:00:00 -1 4 Oeste 9 Sudoeste 0 957.1 -0.4 65
2020-01-20 02:00:00 -0.1 3 Oeste 6 Sudoeste 0 957.2 0.3 59
2020-01-20 01:00:00 1.3 3 Sudoeste 25 Noroeste 0 957.6 1 51
2020-01-20 00:00:00 2.3 9 Norte 27 Norte 0 957.5 1.8 48
2020-01-19 23:00:00 2.9 18 Norte 35 Nordeste 0 956.9 1.8 46
2020-01-19 22:00:00 3.4 24 Norte 40 Nordeste 0 956.6 2.1 44
2020-01-19 21:00:00 3.9 25 Norte 46 Nordeste 0 955.7 2.4 42
2020-01-19 20:00:00 4 27 Norte 55 Norte 0 955.1 2.1 42
2020-01-19 19:00:00 4.5 20 Norte 55 Norte 0 954.5 1.3 39
2020-01-19 18:00:00 5.3 33 Nordeste 58 Nordeste 0 953.3 0.2 37
2020-01-19 17:00:00 6.3 29 Nordeste 54 Norte 0 953 -0.5 38
2020-01-19 16:00:00 7.2 27 Nordeste 49 Nordeste 0 953.2 -0.4 39
2020-01-19 15:00:00 6.9 29 Norte 44 Nordeste 0 953.1 -0.3 42
2020-01-19 14:00:00 6.5 17 Norte 38 Norte 0 953.5 0.8 47
2020-01-19 13:00:00 5.9 21 Norte 48 Norte 0 953.6 2 58
2020-01-19 12:00:00 4.9 31 Nordeste 58 Nordeste 0 953.4 2.4 73
2020-01-19 11:00:00 5.3 28 Norte 48 Nordeste 0 952.7 2.4 72
2020-01-19 10:00:00 5.2 27 Nordeste 40 Nordeste 0.4 951.6 1.4 74
2020-01-19 09:00:00 5 22 Norte 35 Nordeste 0.2 951 0.9 80
2020-01-19 08:00:00 3.9 3 Sudoeste 18 Sur 0.4 950.3 -0.1 90
2020-01-19 07:00:00 3.4 0 Calma 11 Oeste 0 950.2 -0.6 90
2020-01-19 06:00:00 3.3 3 Sudeste 9 Sur 0 950.1 -0.6 89
2020-01-19 05:00:00 3.4 5 Nordeste 6 Nordeste 0 950.4 -0.5 88
2020-01-19 04:00:00 3.7 3 Este 9 Sur 0 950.8 -0.6 86
2020-01-19 03:00:00 3.6 5 Este 12 Nordeste 0 950.7 -0.8 85
2020-01-19 02:00:00 4.4 7 Oeste 13 Oeste 0 950.9 -0.3 82
2020-01-19 01:00:00 5 3 Noroeste 13 Oeste 0 951.4 0.1 80
2020-01-19 00:00:00 5 8 Sudoeste 16 Oeste 0 951.5 1.6 83
2020-01-18 23:00:00 5.6 11 Sudoeste 23 Sudoeste 0.2 951.2 0.3 81
2020-01-18 22:00:00 6.5 21 Oeste 55 Oeste 1.8 951.3 0 80
2020-01-18 21:00:00 9.7 4 Sudoeste 21 Sudeste 0 949.9 -1.4 68
2020-01-18 20:00:00 10.4 5 Sur 12 Sudoeste 0 950.9 -1 66
2020-01-18 19:00:00 10.8 6 Sur 26 Sudoeste 0 951.3 -1.4 65
2020-01-18 18:00:00 11.1 14 Sudoeste 36 Sudoeste 0 951.3 -2.7 62
2020-01-18 17:00:00 11.6 16 Sudoeste 27 Sudoeste 0 951.9 -3.9 57
2020-01-18 16:00:00 11.2 3 Oeste 16 Oeste 0 952.7 -4.9 60
2020-01-18 15:00:00 10.9 9 Sudoeste 26 Sudoeste 0 954 -5.1 61
2020-01-18 14:00:00 9.3 3 Sudoeste 10 Sudoeste 0 955.8 -4 62
2020-01-18 13:00:00 7 3 Oeste 8 Oeste 0 957.6 -2.5 66
2020-01-18 12:00:00 4.7 3 Sur 7 Nordeste 0 959.1 -1.6 71
2020-01-18 11:00:00 2.5 4 Sudoeste 9 Nordeste 0 959.8 -1.2 80
2020-01-18 10:00:00 1.1 3 Norte 9 Norte 0 960.1 -0.6 84
2020-01-18 09:00:00 0.3 4 Sur 6 Sudeste 0 960.7 -0.8 86
2020-01-18 08:00:00 0 3 Este 9 Nordeste 0 961 -0.4 85
2020-01-18 07:00:00 0.2 2 Sudeste 8 Sur 0 960.7 -1.2 85
2020-01-18 06:00:00 -0.4 5 Sur 9 Sur 0 961.5 0.2 87
2020-01-18 05:00:00 -0.1 3 Sur 7 Sudeste 0 961.4 -0.8 85
2020-01-18 04:00:00 -0.6 2 Oeste 6 Sudoeste 0 961.9 -0.6 85
2020-01-18 03:00:00 -0.1 2 Nordeste 10 Sur 0 961.3 -1.2 84
2020-01-18 02:00:00 0.8 4 Sudoeste 7 Nordeste 0 962.2 -0.5 81
2020-01-18 01:00:00 1.5 2 Este 9 Norte 0 962.5 -0.3 79
2020-01-18 00:00:00 3.1 9 Sur 13 Sur 0 962.5 -0.1 74
2020-01-17 23:00:00 4.2 4 Sur 9 Sudeste 0 962.7 0.3 67
2020-01-17 22:00:00 5.2 4 Sudeste 12 Noroeste 0 962.8 0.9 65
2020-01-17 21:00:00 6.8 4 Este 19 Oeste 0 962.6 1.6 58
2020-01-17 20:00:00 8.2 9 Oeste 21 Oeste 0 962.4 2.1 53
2020-01-17 19:00:00 9.3 8 Oeste 19 Oeste 0 961.9 2.4 48
2020-01-17 18:00:00 10.5 11 Oeste 33 Oeste 0 961 1.8 46
2020-01-17 17:00:00 11.8 23 Oeste 45 Oeste 0 960.3 0.8 39
2020-01-17 16:00:00 12.7 26 Oeste 49 Noroeste 0 959.5 -0.3 39
2020-01-17 15:00:00 13.7 21 Oeste 53 Noroeste 0 959.2 -1.2 37
2020-01-17 14:00:00 11.8 25 Oeste 47 Oeste 0 959.5 -0.5 50
2020-01-17 13:00:00 11.6 18 Oeste 32 Oeste 0 959.8 -0.1 58
2020-01-17 12:00:00 10.1 10 Oeste 18 Sudoeste 0 960.4 1.4 67
2020-01-17 11:00:00 6.5 8 Sudoeste 15 Sudoeste 0 960 1.6 83
2020-01-17 10:00:00 4.1 0 Calma 6 Noroeste 0 959.9 2.2 83
2020-01-17 09:00:00 3.1 4 Nordeste 7 Norte 0 959 1.5 84
2020-01-17 08:00:00 3.2 3 Sur 10 Nordeste 0 958.4 1.1 84
2020-01-17 07:00:00 3.4 6 Sudeste 10 Sur 0 957.7 0.8 83
2020-01-17 06:00:00 3.2 3 Norte 10 Sur 0 957.5 0.6 82
2020-01-17 05:00:00 4.3 2 Este 14 Nordeste 0 957.3 0.2 80
2020-01-17 04:00:00 5.2 6 Nordeste 13 Sudoeste 0 956.9 -0.3 79
2020-01-17 03:00:00 6.4 4 Oeste 18 Sudoeste 0 956.9 -0.1 74
2020-01-17 02:00:00 5.2 3 Sur 12 Oeste 0 957.1 0.3 81
2020-01-17 01:00:00 5.2 4 Oeste 11 Sur 0 957.2 0.4 76
2020-01-17 00:00:00 6.7 8 Sudoeste 15 Sur 0 957 0.4 69
2020-01-16 23:00:00 5.8 8 Sur 19 Sur 0 956.8 0.4 73
2020-01-16 22:00:00 6.7 14 Sur 21 Sur 0 956.8 0.8 71
2020-01-16 21:00:00 7.3 10 Sur 20 Sur 0 956.6 1.1 67
2020-01-16 20:00:00 9.4 3 Sudoeste 15 Sudeste 0 956.4 1.3 60
2020-01-16 19:00:00 11.6 8 Sur 21 Sudoeste 0 956 0.5 56
2020-01-16 18:00:00 13.2 11 Sudoeste 19 Sudoeste 0 955.5 -0.4 51
2020-01-16 17:00:00 15.9 11 Sudoeste 29 Sudoeste 0 955.1 -1.6 44
2020-01-16 16:00:00 16.1 14 Sudoeste 28 Sudoeste 0 955.5 -1.9 46
2020-01-16 15:00:00 13.4 6 Oeste 12 Sudoeste 0 955.9 -2.4 57
2020-01-16 14:00:00 11.7 2 Oeste 7 Norte 0 956.7 -2.4 61
2020-01-16 13:00:00 9.7 4 Norte 10 Nordeste 0 957.4 -1.7 66
2020-01-16 12:00:00 7.9 4 Norte 9 Sudeste 0 958.3 -0.6 69
2020-01-16 11:00:00 3.2 3 Oeste 7 Sudoeste 0 959.1 0.5 89
2020-01-16 10:00:00 1.1 0 Calma 5 Este 0 959.1 0.4 90
2020-01-16 09:00:00 0 0 Calma 5 Este 0 958.9 0.5 91
2020-01-16 08:00:00 0.1 5 Nordeste 7 Nordeste 0 958.6 0.1 91
2020-01-16 07:00:00 0.5 3 Sudoeste 7 Sudeste 0 958.7 0.1 90
2020-01-16 06:00:00 0.1 2 Sudoeste 4 Sur 0 958.4 -0.1 90
2020-01-16 05:00:00 -0.1 3 Sur 4 Sudoeste 0 958.5 0.2 89
2020-01-16 04:00:00 0.5 3 Este 6 Este 0 958.6 -0.1 89
2020-01-16 03:00:00 1.2 4 Este 8 Sur 0 958.5 -0.4 88
2020-01-16 02:00:00 1.8 4 Sur 5 Sur 0 958.3 -0.3 86
2020-01-16 01:00:00 2.5 2 Sur 10 Nordeste 0 958.7 0.5 84
2020-01-16 00:00:00 3.5 5 Sudoeste 8 Sur 0 958.9 1.1 82
2020-01-15 23:00:00 4.8 0 Calma 8 Nordeste 0 958.6 1.1 78
2020-01-15 22:00:00 6.1 4 Nordeste 12 Sudeste 0 958.2 1.3 74
2020-01-15 21:00:00 7.2 4 Oeste 14 Oeste 0 957.8 1.7 71
2020-01-15 20:00:00 8.9 11 Sudoeste 18 Sudoeste 0 957.5 2.5 65
2020-01-15 19:00:00 10.5 7 Oeste 15 Sudoeste 0 956.9 2.3 58
2020-01-15 18:00:00 11.6 11 Oeste 21 Oeste 0 956.1 1.4 55
2020-01-15 17:00:00 12.8 14 Oeste 27 Oeste 0 955 -0.4 51
2020-01-15 16:00:00 14.8 3 Oeste 10 Sudeste 0 954.6 -1.2 43
2020-01-15 15:00:00 13.8 4 Sur 11 Sudoeste 0 954.7 -1.8 46
2020-01-15 14:00:00 10.2 8 Nordeste 13 Nordeste 0 955.4 -0.9 57
2020-01-15 13:00:00 7.6 6 Nordeste 12 Norte 0 955.8 0.3 64
2020-01-15 12:00:00 4.3 2 Oeste 7 Sudoeste 0 956.5 1.6 73
2020-01-15 11:00:00 0.8 3 Sur 5 Sur 0 956.3 1.9 86
2020-01-15 10:00:00 -1.6 2 Sur 6 Nordeste 0 955.5 1.6 88
2020-01-15 09:00:00 -2.8 4 Este 8 Nordeste 0 954.9 1.1 88
2020-01-15 08:00:00 -2.9 4 Este 9 Norte 0 954.4 0.7 88
2020-01-15 07:00:00 -2.6 3 Oeste 6 Noroeste 0 953.9 0.1 88
2020-01-15 06:00:00 -2.4 3 Sudoeste 7 Oeste 0 953.8 -0.1 88
2020-01-15 05:00:00 -2.3 2 Sur 6 Oeste 0 953.7 0 88
2020-01-15 04:00:00 -2.1 3 Sudoeste 7 Sudeste 0 953.8 -0.1 87
2020-01-15 03:00:00 -1.7 3 Oeste 7 Norte 0 953.9 0.1 86
2020-01-15 02:00:00 -1 3 Sudeste 5 Sudoeste 0 953.7 -0.2 84
2020-01-15 01:00:00 -0.5 2 Sudoeste 11 Nordeste 0 953.9 0.1 82
2020-01-15 00:00:00 0 8 Nordeste 16 Sur 0 953.8 0.4 79
2020-01-14 23:00:00 2.6 10 Sur 17 Sur 0 953.9 0.7 73
2020-01-14 22:00:00 2.6 9 Sur 14 Sur 0 953.8 1.2 72
2020-01-14 21:00:00 2.1 11 Sur 15 Sur 0 953.4 1.1 74
2020-01-14 20:00:00 3.4 8 Sur 12 Sur 0 953.2 1.1 68
2020-01-14 19:00:00 5.6 6 Sur 9 Sudoeste 0 952.6 0.5 59
2020-01-14 18:00:00 8 4 Sudoeste 12 Sudoeste 0 952.3 -0.2 52
2020-01-14 17:00:00 9.5 10 Sudoeste 23 Oeste 0 952.1 -0.8 47
2020-01-14 16:00:00 9.8 12 Oeste 21 Oeste 0 952.1 -1.6 48
2020-01-14 15:00:00 8.5 15 Oeste 26 Oeste 0 952.5 -2 52
2020-01-14 14:00:00 8.6 16 Oeste 32 Oeste 0 952.9 -1.9 53
2020-01-14 13:00:00 8.4 9 Sudoeste 16 Oeste 0 953.7 -0.9 55
2020-01-14 12:00:00 5.9 9 Sudoeste 16 Sudoeste 0 954.5 0.2 62
2020-01-14 11:00:00 1.9 6 Sudoeste 11 Sudoeste 0 954.8 0.7 74
2020-01-14 10:00:00 -0.6 8 Sur 13 Sur 0 954.6 0.7 81
2020-01-14 09:00:00 -1.2 6 Sur 14 Sur 0 954.3 0.5 81
2020-01-14 08:00:00 -1.6 9 Sur 16 Sur 0 954.1 0.6 81
2020-01-14 07:00:00 -0.9 13 Sur 18 Sur 0 953.9 0.2 79
2020-01-14 06:00:00 -3.2 4 Sudeste 11 Sur 0 953.8 -0.1 83
2020-01-14 05:00:00 -2 5 Sur 14 Sur 0 953.5 -0.5 79
2020-01-14 04:00:00 -2.2 2 Sur 14 Sur 0 953.7 -0.8 81
2020-01-14 03:00:00 -1.8 10 Sur 14 Sur 0 953.9 -0.4 79
2020-01-14 02:00:00 -0.7 3 Nordeste 6 Sudeste 0 954 0.1 76
2020-01-14 01:00:00 0.5 3 Sudeste 9 Nordeste 0 954.5 0.9 72
2020-01-14 00:00:00 1.5 5 Nordeste 8 Sur 0 954.3 0.8 68
2020-01-13 23:00:00 3.4 5 Sur 10 Sur 0 953.9 0.6 60
2020-01-13 22:00:00 4.8 6 Sudoeste 16 Oeste 0 953.6 0.4 53
2020-01-13 21:00:00 6.5 12 Sudoeste 19 Sudoeste 0 953.5 0.4 49
2020-01-13 20:00:00 7.3 7 Sudoeste 22 Sudoeste 0 953.3 0 43
2020-01-13 19:00:00 8.6 9 Sur 23 Oeste 0 953.2 -0.1 36
2020-01-13 18:00:00 9.8 14 Oeste 25 Sudoeste 0 953.1 -0.9 36
2020-01-13 17:00:00 10.8 3 Sudoeste 10 Sur 0 953.3 -1.6 40
2020-01-13 16:00:00 10.9 4 Sudoeste 6 Sur 0 953.3 -2.8 38
2020-01-13 15:00:00 9.3 3 Nordeste 8 Sudeste 0 954 -3.1 41
2020-01-13 14:00:00 7.2 3 Oeste 8 Sur 0 954.9 -2.7 48
2020-01-13 13:00:00 4.5 3 Oeste -- -- -- 956.1 -1.4 61
2020-01-13 12:00:00 -- 3 Sudoeste 6 Sudoeste 0 957.1 -0.5 73
2020-01-13 11:00:00 -- 3 Oeste -- -- -- 957.6 -0.3 85
2020-01-13 10:00:00 -4.1 0 Calma 4 Norte 0 957.5 -0.5 87
2020-01-13 09:00:00 -5.3 3 Nordeste 4 Norte 0 957.6 -0.6 87
2020-01-13 08:00:00 -5.3 3 Nordeste 4 Este 0 957.9 -0.8 87
2020-01-13 07:00:00 -5.3 3 Sur 5 Sudeste 0 958 -1.4 87
2020-01-13 06:00:00 -4.7 0 Calma 3 Oeste 0 958.2 -1.4 85
2020-01-13 05:00:00 -4.2 2 Nordeste 5 Nordeste 0 958.7 -1.1 84
2020-01-13 04:00:00 -3.7 2 Noroeste 6 Sur 0 959.4 -0.9 84
2020-01-13 03:00:00 -3.3 2 Sudoeste 5 Sur 0 959.6 -1.1 82
2020-01-13 02:00:00 -3 2 Sur 6 Sur 0 959.8 -0.8 80
2020-01-13 01:00:00 -2.2 4 Sudoeste 6 Sur 0 960.3 -0.6 78
2020-01-13 00:00:00 -1.5 4 Este 6 Este 0 960.7 -0.1 79
2020-01-12 23:00:00 -0.3 2 Sudoeste 8 Sur 0 960.6 -0.1 74
2020-01-12 22:00:00 0.5 7 Sur 10 Sur 0 960.9 0.8 71
2020-01-12 21:00:00 1.7 2 Sur 5 Sur 0 960.8 1.3 67
2020-01-12 20:00:00 3.1 3 Sudeste 5 Sudeste 0 960.7 1.3 61
2020-01-12 19:00:00 5.3 2 Noroeste 7 Nordeste 0 960.1 0.4 55
2020-01-12 18:00:00 7.4 6 Nordeste 11 Norte 0 959.5 -0.6 47
2020-01-12 17:00:00 9.8 7 Norte 11 Norte 0 959.4 -1.3 40
2020-01-12 16:00:00 10 3 Norte 9 Nordeste 0 959.7 -2.4 39
2020-01-12 15:00:00 8.5 3 Norte 9 Nordeste 0 960.1 -3 44
2020-01-12 14:00:00 6.7 5 Norte 9 Norte 0 960.7 -2.8 48
2020-01-12 13:00:00 4.6 5 Norte 9 Nordeste 0 962.1 -1 56
2020-01-12 12:00:00 2.1 3 Noroeste 6 Noroeste 0 963.1 0.5 65
2020-01-12 11:00:00 -2.2 3 Norte 7 Nordeste 0 963.5 0.8 82
2020-01-12 10:00:00 -4.5 2 Sudeste 6 Nordeste 0 963.1 0.7 85
2020-01-12 09:00:00 -5.2 2 Nordeste 5 Nordeste 0 962.6 0.6 85
2020-01-12 08:00:00 -5.2 4 Nordeste 9 Sudeste 0 962.7 0.8 84
2020-01-12 07:00:00 -4.8 2 Este 8 Sudeste 0 962.4 0.4 83
2020-01-12 06:00:00 -4.2 3 Sur 7 Sudeste 0 962 0 82
2020-01-12 05:00:00 -4 3 Sur 11 Sur 0 961.9 0 82
2020-01-12 04:00:00 -3.7 4 Sudeste 8 Sur 0 962 0 80
2020-01-12 03:00:00 -3.1 4 Sudoeste 10 Sur 0 962 -0.1 80
2020-01-12 02:00:00 -2.5 2 Noroeste 4 Nordeste 0 961.9 -0.2 79
2020-01-12 01:00:00 -1.9 4 Nordeste 6 Norte 0 962 0.1 77
2020-01-12 00:00:00 -1.2 0 Calma 6 Norte 0 962.1 0.6 76
2020-01-11 23:00:00 -0.4 3 Nordeste 4 Oeste 0 962.1 1 75
2020-01-11 22:00:00 0.3 0 Calma 8 Norte 0 961.9 1.5 72
2020-01-11 21:00:00 1.9 4 Nordeste 14 Sur 0 961.5 1.6 65
2020-01-11 20:00:00 3.3 14 Sur 22 Sur 0 961.1 1 60
2020-01-11 19:00:00 5.9 3 Sudeste 10 Este 0 960.4 0.1 52
2020-01-11 18:00:00 9.1 2 Sudeste 11 Sur 0 959.9 -0.9 42
2020-01-11 17:00:00 12.1 3 Sudoeste 9 Sudoeste 0 960.1 -1.5 33
2020-01-11 16:00:00 11.1 5 Oeste 11 Sudoeste 0 960.3 -2.6 35
2020-01-11 15:00:00 9.7 4 Norte 10 Norte 0 960.8 -3 42
2020-01-11 14:00:00 8.1 3 Noroeste 9 Norte 0 961.6 -2.7 50
2020-01-11 13:00:00 5.4 4 Noroeste 8 Noroeste 0 962.9 -1 61
2020-01-11 12:00:00 3 3 Norte 7 Norte 0 963.8 0.3 73
2020-01-11 11:00:00 -0.6 2 Sudeste 6 Nordeste 0 964.3 1.2 90
2020-01-11 10:00:00 -3 2 Norte 4 Norte 0 963.9 1.3 90
2020-01-11 09:00:00 -3.5 3 Sudeste 5 Sudeste 0 963.5 1.2 89
2020-01-11 08:00:00 -3.2 0 Calma 4 Oeste 0 963.1 0.8 89
2020-01-11 07:00:00 -2.8 0 Calma 3 Oeste 0 962.6 0.2 88
2020-01-11 06:00:00 -2.2 0 Calma 5 Norte 0 962.3 0.1 88
2020-01-11 05:00:00 -1.6 2 Sudeste 4 Nordeste 0 962.3 0.5 87
2020-01-11 04:00:00 -1.1 2 Nordeste 5 Nordeste 0 962.4 0.5 86
2020-01-11 03:00:00 -0.6 4 Nordeste 8 Nordeste 0 962.2 0.2 86
2020-01-11 02:00:00 -0.2 0 Calma 10 Sur 0 961.8 0.2 83
2020-01-11 01:00:00 0.8 2 Sudoeste 7 Norte 0 961.9 0.8 81
2020-01-11 00:00:00 1.5 5 Norte 10 Nordeste 0 962 1.1 79
2020-01-10 23:00:00 2.4 5 Sudoeste 14 Sur 0 961.6 0.9 77
2020-01-10 22:00:00 3.5 6 Sur 13 Sur 0 961.1 0.8 73
2020-01-10 21:00:00 5.4 7 Sudeste 15 Sudeste 0 960.9 1.3 65
2020-01-10 20:00:00 5.8 9 Sur 12 Sur 0 960.7 1.8 64
2020-01-10 19:00:00 7.2 4 Sur 20 Nordeste 0 960.3 1.7 59
2020-01-10 18:00:00 8.4 10 Nordeste 21 Norte 0 959.6 1.1 54
2020-01-10 17:00:00 9.5 15 Nordeste 30 Nordeste 0 958.9 0.2 50
2020-01-10 16:00:00 10.8 16 Nordeste 37 Nordeste 0 958.6 -0.3 47
2020-01-10 15:00:00 11.1 19 Nordeste 34 Nordeste 0 958.5 -1.1 45
2020-01-10 14:00:00 11 17 Nordeste 33 Nordeste 0 958.7 -1 45
2020-01-10 13:00:00 10 16 Nordeste 25 Nordeste 0 958.9 -0.1 49
2020-01-10 12:00:00 9.2 4 Sur 9 Sudoeste 0 959.6 1.1 53
2020-01-10 11:00:00 6.2 8 Sur 13 Sur 0 959.7 1.7 68
2020-01-10 10:00:00 4.2 4 Sudeste 17 Sur 0 959 1.6 80
2020-01-10 09:00:00 3 4 Sur 15 Sudeste 0 958.5 1.4 84
2020-01-10 08:00:00 4.3 10 Sur 22 Sur 0 958 0.9 84
2020-01-10 07:00:00 4.8 10 Sur 14 Sudeste 0 957.4 0.5 80
2020-01-10 06:00:00 5.9 10 Sur 13 Sur 0 957.1 0.8 77
2020-01-10 05:00:00 6.7 4 Oeste 20 Nordeste 0 957.1 1.4 73
2020-01-10 04:00:00 7.1 16 Nordeste 28 Nordeste 0 956.9 1.3 73
2020-01-10 03:00:00 7.3 15 Nordeste 25 Nordeste 0 956.3 0.5 75
2020-01-10 02:00:00 7.3 20 Este 28 Este 0 955.7 0.5 78
2020-01-10 01:00:00 7.1 4 Sur 12 Sur 0 955.6 0.3 75
2020-01-10 00:00:00 7.3 7 Nordeste 9 Norte 0 955.8 0.1 75
2020-01-09 23:00:00 7.7 6 Este 9 Nordeste 0 955.2 -0.6 73
2020-01-09 22:00:00 9.6 7 Sur 13 Sur 0 955.3 0.8 66
2020-01-09 21:00:00 9.3 6 Sudoeste 12 Sur 0 955.7 1.3 65
2020-01-09 20:00:00 8.6 4 Sur 12 Nordeste 0 955.8 1.4 67
2020-01-09 19:00:00 10.9 3 Sur 10 Sur 0 954.5 0.2 57
2020-01-09 18:00:00 13.9 0 Calma 8 Oeste 0 954.4 -0.5 49
2020-01-09 17:00:00 16.3 3 Sudoeste 8 Sudoeste 0 954.4 -1.7 41
2020-01-09 16:00:00 15.3 6 Sudoeste 11 Sudoeste 0 954.3 -3.2 43
2020-01-09 15:00:00 13.8 3 Sur 7 Sudoeste 0 954.9 -3.9 48
2020-01-09 14:00:00 9.7 5 Norte 9 Nordeste 0 956.1 -3 61
2020-01-09 13:00:00 7.1 5 Noroeste 10 Norte 0 957.5 -1.5 68
2020-01-09 12:00:00 2.8 3 Norte 6 Nordeste 0 958.8 -0.1 90
2020-01-09 11:00:00 -0.6 5 Nordeste 8 Norte 0 959.1 0.2 92
2020-01-09 10:00:00 -1.7 2 Nordeste 5 Este 0 959 0 92
2020-01-09 09:00:00 -2.3 0 Calma 5 Sudeste 0 958.9 -0.1 92
2020-01-09 08:00:00 -2.1 0 Calma 4 Noroeste 0 958.9 -0.5 91
2020-01-09 07:00:00 -1.6 2 Norte 5 Sur 0 959 -0.8 91
2020-01-09 06:00:00 -1.2 0 Calma 5 Sur 0 959 -1.1 90
2020-01-09 05:00:00 -0.9 3 Sudoeste 4 Oeste 0 959.4 -0.8 90
2020-01-09 04:00:00 -0.4 2 Sudoeste 5 Nordeste 0 959.8 -0.4 90
2020-01-09 03:00:00 -0.1 5 Nordeste 6 Nordeste 0 960.1 -0.4 89
2020-01-09 02:00:00 0.3 4 Sudoeste 7 Nordeste 0 960.2 -0.4 88
2020-01-09 01:00:00 0.9 5 Nordeste 6 Nordeste 0 960.2 -0.4 87
2020-01-09 00:00:00 1.8 4 Sur 5 Sur 0 960.5 -0.1 86
2020-01-08 23:00:00 2.6 0 Calma 2 Norte 0 960.6 0.2 84
2020-01-08 22:00:00 3.8 2 Norte 6 Este 0 960.6 0.4 83
2020-01-08 21:00:00 4.8 4 Este 9 Norte 0 960.6 0.7 76
2020-01-08 20:00:00 6.8 3 Este 7 Nordeste 0 960.4 0.8 67
2020-01-08 19:00:00 8.3 5 Nordeste 10 Nordeste 0 960.2 0.6 66
2020-01-08 18:00:00 10.4 8 Nordeste 13 Nordeste 0 959.9 -0.1 57
2020-01-08 17:00:00 12.7 7 Nordeste 10 Nordeste 0 959.6 -1 45
2020-01-08 16:00:00 12.6 5 Nordeste 9 Nordeste 0 959.6 -1.9 40
2020-01-08 15:00:00 11.5 4 Nordeste 9 Nordeste 0 960 -2.5 39
2020-01-08 14:00:00 10.1 4 Norte 8 Noroeste 0 960.6 -2.3 44
2020-01-08 13:00:00 8.8 4 Sudoeste 6 Sudoeste 0 961.5 -1.3 47
2020-01-08 12:00:00 5.4 2 Noroeste 6 Oeste 0 962.5 0.5 63
2020-01-08 11:00:00 1.5 2 Este 5 Este 0 962.9 1.4 81
2020-01-08 10:00:00 -1.1 2 Norte 5 Oeste 0 962.8 1.7 86
2020-01-08 09:00:00 -1.7 4 Este 5 Este 0 962 0.9 86
2020-01-08 08:00:00 -1.6 3 Este 5 Oeste 0 961.5 0.5 85
2020-01-08 07:00:00 -1.2 3 Este 4 Este 0 961.1 -0.2 84
2020-01-08 06:00:00 -1.2 0 Calma 5 Oeste 0 961.1 -0.2 84
2020-01-08 05:00:00 -0.3 2 Sur 8 Nordeste 0 961 -0.2 83
2020-01-08 04:00:00 0 4 Este 10 Sudeste 0 961.3 -0.3 82
2020-01-08 03:00:00 -0.2 2 Sudeste 6 Norte 0 961.3 -0.5 83
2020-01-08 02:00:00 0.2 2 Sudoeste 5 Nordeste 0 961.2 -0.6 81
2020-01-08 01:00:00 0.5 3 Nordeste 5 Nordeste 0 961.6 -0.1 80
2020-01-08 00:00:00 1.1 2 Sudeste 5 Este 0 961.8 0.5 78
2020-01-07 23:00:00 1.3 0 Calma 4 Oeste 0 961.8 0.8 74
2020-01-07 22:00:00 2.4 0 Calma 4 Este 0 961.7 0.9 72
2020-01-07 21:00:00 3.8 2 Noroeste 8 Nordeste 0 961.3 0.8 69
2020-01-07 20:00:00 4.9 5 Este 8 Nordeste 0 961 0.7 63
2020-01-07 19:00:00 6.8 3 Sur 6 Sudoeste 0 960.8 0.5 55
2020-01-07 18:00:00 10.9 3 Sudoeste 5 Norte 0 960.5 -0.1 41
2020-01-07 17:00:00 12.7 3 Norte 4 Norte 0 960.3 -1.3 37
2020-01-07 16:00:00 12.4 4 Norte 11 Norte 0 960.3 -2.6 39
2020-01-07 15:00:00 10.6 8 Norte 11 Norte 0 960.6 -3.3 42
2020-01-07 14:00:00 9 2 Nordeste 10 Nordeste 0 961.6 -2.8 47
2020-01-07 13:00:00 5.9 5 Norte 8 Nordeste 0 962.9 -1.5 61
2020-01-07 12:00:00 2.5 3 Nordeste 6 Este 0 963.9 0.3 74
2020-01-07 11:00:00 -1.1 2 Norte 5 Sudoeste 0 964.4 1.1 89
2020-01-07 10:00:00 -3 3 Norte 7 Nordeste 0 964.4 1.5 90
2020-01-07 09:00:00 -3.8 0 Calma 6 Sur 0 963.6 1 90
2020-01-07 08:00:00 -3.9 3 Oeste 5 Oeste 0 963.3 0.4 90
2020-01-07 07:00:00 -3.4 0 Calma 5 Sudeste 0 962.9 0.2 90
2020-01-07 06:00:00 -3.2 4 Norte 6 Norte 0 962.6 -0.3 89
2020-01-07 05:00:00 -2.5 2 Sudoeste 4 Nordeste 0 962.9 0.1 89
2020-01-07 04:00:00 -1.8 0 Calma 5 Nordeste 0 962.7 0.2 89
2020-01-07 03:00:00 -1.5 5 Nordeste 5 Nordeste 0 962.9 0.5 89
2020-01-07 02:00:00 -1.1 0 Calma 8 Nordeste 0 962.8 0.7 88
2020-01-07 01:00:00 -0.4 4 Nordeste 7 Nordeste 0 962.5 0.7 85
2020-01-07 00:00:00 0.2 5 Sudoeste 6 Sudoeste 0 962.4 1.2 84
2020-01-06 23:00:00 0.8 5 Nordeste 8 Nordeste 0 962.1 1.3 82
2020-01-06 22:00:00 1.8 3 Este 7 Nordeste 0 961.8 2.3 80
2020-01-06 21:00:00 3.1 2 Sudoeste 8 Nordeste 0 961.2 2.4 76
2020-01-06 20:00:00 4.3 7 Nordeste 10 Nordeste 0 960.8 2.2 72
2020-01-06 19:00:00 6.1 6 Nordeste 11 Nordeste 0 959.5 1.1 65
2020-01-06 18:00:00 10.6 0 Calma 5 Nordeste 0 958.8 0.2 48
2020-01-06 17:00:00 12.2 4 Nordeste 6 Norte 0 958.6 -0.7 43
2020-01-06 16:00:00 11.8 3 Norte 7 Norte 0 958.4 -1.7 44
2020-01-06 15:00:00 10.2 4 Norte 8 Norte 0 958.6 -2.6 48
2020-01-06 14:00:00 7.6 5 Nordeste 7 Norte 0 959.3 -2.3 57
2020-01-06 13:00:00 5.1 3 Nordeste 8 Nordeste 0 960.1 -1.5 66
2020-01-06 12:00:00 3.1 2 Oeste 5 Sudoeste 0 961.2 0 80
2020-01-06 11:00:00 -1.2 3 Oeste 6 Norte 0 961.6 1.2 91
2020-01-06 10:00:00 -3.5 3 Nordeste 4 Norte 0 961.6 1.3 91